Time;durP1;ratioP1;P1;durP2;ratioP2;P2;SDS_P1;SDS_P2;PMS_P1;PMS_P2;Temp;Humidity;BMP_temperature;BMP_pressure;BME280_temperature;BME280_humidity;BME280_pressure;Samples;Min_cycle;Max_cycle;Signal;HPM_P1;HPM_P2
2022/09/28 00:00:10;;;;;;;0.47;0.20;;;7.40;99.90;;;;;;6193555;23;20016;-85
2022/09/28 00:02:36;;;;;;;1.48;0.32;;;6.30;99.90;;;;;;6218785;23;20012;-85
2022/09/28 00:05:02;;;;;;;0.10;0.10;;;7.30;99.90;;;;;;6168837;23;20078;-85
2022/09/28 00:07:28;;;;;;;0.43;0.30;;;7.40;99.90;;;;;;6168716;23;20444;-86
2022/09/28 00:09:54;;;;;;;1.23;0.50;;;7.40;99.90;;;;;;6218695;23;20016;-85
2022/09/28 00:12:20;;;;;;;0.37;0.30;;;8.60;99.90;;;;;;6218143;23;20095;-85
2022/09/28 00:14:46;;;;;;;0.52;0.20;;;7.40;99.90;;;;;;6193856;23;20089;-85
2022/09/28 00:17:12;;;;;;;0.53;0.20;;;6.30;99.90;;;;;;6192925;23;20032;-85
2022/09/28 00:19:42;;;;;;;0.55;0.32;;;7.40;99.90;;;;;;6193845;23;20022;-85
2022/09/28 00:22:08;;;;;;;0.52;0.25;;;7.30;99.90;;;;;;6168737;23;20075;-85
2022/09/28 00:24:34;;;;;;;0.20;0.20;;;7.20;99.90;;;;;;6193532;23;20376;-85
2022/09/28 00:27:01;;;;;;;0.20;0.20;;;7.30;99.90;;;;;;6193575;23;20020;-85
2022/09/28 00:29:27;;;;;;;0.20;0.20;;;7.40;99.90;;;;;;6193464;23;20052;-85
2022/09/28 00:31:59;;;;;;;0.53;0.27;;;7.20;99.90;;;;;;6193681;23;20016;-85
2022/09/28 00:34:36;;;;;;;2.08;0.70;;;7.10;99.90;;;;;;6193110;23;20047;-85
2022/09/28 00:37:04;;;;;;;0.43;0.20;;;7.10;99.90;;;;;;6193711;23;20080;-85
2022/09/28 00:39:30;;;;;;;0.20;0.10;;;8.20;99.90;;;;;;6192776;23;20031;-86
2022/09/28 00:41:57;;;;;;;0.65;0.65;;;7.10;99.90;;;;;;6168753;23;20020;-85
2022/09/28 00:44:23;;;;;;;;;;;7.10;99.90;;;;;;6193381;23;20070;-85
2022/09/28 00:47:07;;;;;;;0.22;0.22;;;8.00;99.90;;;;;;6218407;23;19966;-85
2022/09/28 00:49:54;;;;;;;0.22;0.22;;;7.10;99.90;;;;;;6193074;23;20102;-85
2022/09/28 00:52:31;;;;;;;0.28;0.28;;;7.10;99.90;;;;;;6192235;23;20103;-85
2022/09/28 00:55:00;;;;;;;;;;;7.10;99.90;;;;;;6193758;23;20016;-85
2022/09/28 00:57:26;;;;;;;0.60;0.22;;;7.00;99.90;;;;;;6217653;23;20049;-85
2022/09/28 00:59:52;;;;;;;0.28;0.28;;;7.00;99.90;;;;;;6193305;23;20020;-85
2022/09/28 01:02:19;;;;;;;0.50;0.20;;;7.00;99.90;;;;;;6217625;23;20017;-85
2022/09/28 01:04:46;;;;;;;0.28;0.10;;;7.00;99.90;;;;;;6192597;23;20020;-85
2022/09/28 01:07:12;;;;;;;0.20;0.20;;;7.10;99.90;;;;;;6217706;23;20024;-86
2022/09/28 01:09:39;;;;;;;0.60;0.60;;;7.00;99.90;;;;;;6218112;23;20012;-85
2022/09/28 01:12:06;;;;;;;0.13;0.13;;;7.00;99.90;;;;;;6168232;23;20020;-85
2022/09/28 01:14:31;;;;;;;0.88;0.43;;;7.00;99.90;;;;;;6192411;23;20028;-86
2022/09/28 01:17:03;;;;;;;1.40;0.47;;;7.00;99.90;;;;;;6193224;23;20020;-85
2022/09/28 01:19:54;;;;;;;1.00;0.20;;;7.00;99.90;;;;;;6193150;23;20495;-86
2022/09/28 01:22:38;;;;;;;0.13;0.10;;;6.90;99.90;;;;;;6217664;23;20539;-85
2022/09/28 01:25:18;;;;;;;1.30;0.22;;;6.90;99.90;;;;;;6218003;23;20020;-85
2022/09/28 01:27:56;;;;;;;0.20;0.20;;;6.90;99.90;;;;;;6193420;23;20024;-85
2022/09/28 01:30:22;;;;;;;0.30;0.30;;;6.90;99.90;;;;;;6192341;23;20095;-86
2022/09/28 01:33:12;;;;;;;0.55;0.20;;;6.80;99.90;;;;;;6218022;23;20016;-85
2022/09/28 01:36:01;;;;;;;0.10;0.10;;;8.20;99.90;;;;;;6192678;23;20023;-85
2022/09/28 01:38:38;;;;;;;0.03;0.03;;;6.80;99.90;;;;;;6192507;23;20099;-85
2022/09/28 01:41:05;;;;;;;0.00;0.00;;;6.80;99.90;;;;;;6218283;23;20349;-85
2022/09/28 01:43:33;;;;;;;;;;;6.70;99.90;;;;;;6192819;23;20016;-85
2022/09/28 01:46:00;;;;;;;;;;;5.50;99.90;;;;;;6193061;23;19991;-85
2022/09/28 01:48:59;;;;;;;0.43;0.35;;;6.80;99.90;;;;;;6191047;23;19916;-85
2022/09/28 01:51:31;;;;;;;;;;;6.80;99.90;;;;;;6243873;23;20107;-86
2022/09/28 01:54:04;;;;;;;0.05;0.05;;;6.80;99.90;;;;;;6217855;23;19984;-85
2022/09/28 01:56:37;;;;;;;0.40;0.20;;;6.70;99.90;;;;;;6191851;23;20116;-86
2022/09/28 01:59:16;;;;;;;0.57;0.20;;;6.70;99.90;;;;;;6192699;23;20020;-85
2022/09/28 02:02:22;;;;;;;0.55;0.38;;;6.80;99.90;;;;;;6217453;23;20475;-85
2022/09/28 02:05:12;;;;;;;0.22;0.22;;;6.80;99.90;;;;;;6217079;23;20449;-85
2022/09/28 02:08:07;;;;;;;0.10;0.10;;;6.80;99.90;;;;;;6216779;23;20456;-86
2022/09/28 02:10:47;;;;;;;0.88;0.30;;;6.80;99.90;;;;;;6209667;23;20058;-85
2022/09/28 02:13:20;;;;;;;0.10;0.10;;;6.90;99.90;;;;;;6192658;23;20020;-85
2022/09/28 02:16:13;;;;;;;0.65;0.30;;;6.90;99.90;;;;;;6192199;23;20440;-85
2022/09/28 02:18:40;;;;;;;0.43;0.20;;;6.90;99.90;;;;;;6216864;23;20016;-85
2022/09/28 02:21:14;;;;;;;0.20;0.20;;;6.90;99.90;;;;;;6217726;23;20460;-85
2022/09/28 02:23:49;;;;;;;0.13;0.13;;;7.00;99.90;;;;;;6192194;23;20012;-86
2022/09/28 02:26:19;;;;;;;0.28;0.28;;;6.90;99.90;;;;;;6192595;23;20020;-86
2022/09/28 02:28:45;;;;;;;0.13;0.13;;;7.00;99.90;;;;;;6192132;23;20016;-86
2022/09/28 02:31:10;;;;;;;1.43;0.50;;;7.00;99.90;;;;;;6217127;23;20329;-86
2022/09/28 02:33:40;;;;;;;1.27;0.70;;;7.00;99.90;;;;;;6167385;23;20122;-86
2022/09/28 02:36:06;;;;;;;1.13;0.35;;;7.10;99.90;;;;;;6192454;23;20020;-86
2022/09/28 02:38:31;;;;;;;0.55;0.47;;;7.10;99.90;;;;;;6192466;23;20023;-86
2022/09/28 02:41:22;;;;;;;0.30;0.30;;;7.10;99.90;;;;;;6192546;23;20023;-85
2022/09/28 02:44:09;;;;;;;1.73;0.57;;;7.10;99.90;;;;;;6191386;23;20047;-85
2022/09/28 02:46:53;;;;;;;0.90;0.43;;;7.20;99.90;;;;;;6192186;23;20016;-86
2022/09/28 02:49:57;;;;;;;0.95;0.60;;;7.20;99.90;;;;;;6217560;23;20020;-85
2022/09/28 02:52:37;;;;;;;1.27;0.28;;;7.20;99.90;;;;;;6217204;23;20016;-85
2022/09/28 02:55:41;;;;;;;1.50;1.08;;;7.20;99.90;;;;;;6192420;23;20476;-85
2022/09/28 02:58:23;;;;;;;0.30;0.30;;;7.20;99.90;;;;;;6192451;23;20075;-85
2022/09/28 03:01:06;;;;;;;0.43;0.43;;;7.20;99.90;;;;;;6217001;23;20012;-86
2022/09/28 03:03:52;;;;;;;0.95;0.65;;;7.20;99.90;;;;;;6216740;23;20028;-86
2022/09/28 03:06:47;;;;;;;2.38;0.52;;;7.20;99.90;;;;;;6192683;23;20078;-85
2022/09/28 03:09:15;;;;;;;2.22;0.60;;;7.20;99.90;;;;;;6217372;23;20023;-85
2022/09/28 03:11:57;;;;;;;0.20;0.15;;;7.20;99.90;;;;;;6191828;23;20013;-86
2022/09/28 03:14:23;;;;;;;2.50;0.47;;;7.20;99.90;;;;;;6192553;23;20038;-85
2022/09/28 03:16:49;;;;;;;0.77;0.47;;;7.20;99.90;;;;;;6167247;23;20107;-85
2022/09/28 03:19:23;;;;;;;0.10;0.10;;;7.20;99.90;;;;;;6192254;23;20051;-86
2022/09/28 03:21:49;;;;;;;1.35;0.30;;;7.10;99.90;;;;;;6216997;23;20064;-86
2022/09/28 03:24:15;;;;;;;0.27;0.27;;;7.10;99.90;;;;;;6167571;23;20024;-86
2022/09/28 03:26:41;;;;;;;1.97;0.57;;;7.10;99.90;;;;;;6167228;23;20016;-86
2022/09/28 03:29:06;;;;;;;0.67;0.40;;;7.00;99.90;;;;;;6194083;23;20383;-85
2022/09/28 03:31:33;;;;;;;2.70;0.57;;;8.20;99.90;;;;;;6218564;23;20385;-86
2022/09/28 03:33:59;;;;;;;1.70;0.65;;;7.10;99.90;;;;;;6219239;23;20066;-85
2022/09/28 03:36:24;;;;;;;1.43;0.40;;;7.10;99.90;;;;;;6219422;23;20051;-86
2022/09/28 03:38:56;;;;;;;0.73;0.50;;;7.10;99.90;;;;;;6193209;23;20012;-86
2022/09/28 03:41:28;;;;;;;0.55;0.52;;;8.40;99.90;;;;;;6194692;23;20078;-85
2022/09/28 03:43:54;;;;;;;0.82;0.82;;;7.00;99.90;;;;;;6218637;23;20016;-86
2022/09/28 03:46:20;;;;;;;0.33;0.33;;;7.10;99.90;;;;;;6219068;23;20335;-86
2022/09/28 03:48:46;;;;;;;0.20;0.20;;;7.00;99.90;;;;;;6193336;23;20016;-86
2022/09/28 03:51:12;;;;;;;0.83;0.80;;;7.20;99.90;;;;;;6218875;23;20012;-86
2022/09/28 03:53:38;;;;;;;1.75;0.30;;;7.00;99.90;;;;;;6193116;23;20073;-86
2022/09/28 03:56:06;;;;;;;0.68;0.25;;;6.90;99.90;;;;;;6218417;23;20020;-86
2022/09/28 03:58:32;;;;;;;0.45;0.20;;;6.90;99.90;;;;;;6194212;23;20016;-86
2022/09/28 04:01:06;;;;;;;0.50;0.50;;;8.30;99.90;;;;;;6218401;23;20016;-85
2022/09/28 04:03:32;;;;;;;0.45;0.38;;;6.90;99.90;;;;;;6244191;23;20540;-86
2022/09/28 04:05:58;;;;;;;0.67;0.30;;;6.90;99.90;;;;;;6193012;23;20012;-86
2022/09/28 04:08:24;;;;;;;0.43;0.43;;;6.80;99.90;;;;;;6219018;23;20024;-86
2022/09/28 04:10:50;;;;;;;1.83;0.77;;;6.80;99.90;;;;;;6193467;23;20195;-86
2022/09/28 04:13:16;;;;;;;0.50;0.43;;;6.80;99.90;;;;;;6193688;23;20035;-86
2022/09/28 04:15:42;;;;;;;0.20;0.20;;;6.90;99.90;;;;;;6218604;23;20023;-86
2022/09/28 04:18:12;;;;;;;0.38;0.30;;;6.80;99.90;;;;;;6193814;23;20016;-86
2022/09/28 04:20:40;;;;;;;0.35;0.25;;;6.70;99.90;;;;;;6192980;23;20468;-86
2022/09/28 04:23:06;;;;;;;0.63;0.63;;;6.70;99.90;;;;;;6245465;23;20020;-86
2022/09/28 04:25:32;;;;;;;1.55;1.00;;;6.70;99.90;;;;;;6168924;23;20020;-86
2022/09/28 04:30:41;;;;;;;1.02;0.43;;;6.70;99.90;;;;;;6218071;23;20074;-86
2022/09/28 04:33:07;;;;;;;0.40;0.20;;;6.70;99.90;;;;;;6218650;23;20016;-86
2022/09/28 04:35:33;;;;;;;1.77;0.40;;;6.60;99.90;;;;;;6168706;23;20016;-86
2022/09/28 04:37:59;;;;;;;0.30;0.30;;;6.70;99.90;;;;;;6193319;23;20766;-85
2022/09/28 04:40:24;;;;;;;1.27;0.40;;;6.50;99.90;;;;;;6193090;23;20088;-86
2022/09/28 04:42:54;;;;;;;0.20;0.20;;;6.50;99.90;;;;;;6218080;23;20024;-86
2022/09/28 04:45:20;;;;;;;0.75;0.45;;;6.60;99.90;;;;;;6218465;23;20012;-86
2022/09/28 04:47:46;;;;;;;1.17;0.32;;;6.50;99.90;;;;;;6218171;23;20016;-86
2022/09/28 04:50:12;;;;;;;0.37;0.27;;;7.90;99.90;;;;;;6218440;23;20520;-86
2022/09/28 04:52:37;;;;;;;0.60;0.37;;;6.50;99.90;;;;;;6218181;23;20044;-86
2022/09/28 04:55:05;;;;;;;0.30;0.17;;;6.20;99.90;;;;;;6192847;23;20028;-86
2022/09/28 04:57:33;;;;;;;0.47;0.32;;;6.50;99.90;;;;;;6193346;23;20318;-86
2022/09/28 04:59:59;;;;;;;0.82;0.50;;;6.50;99.90;;;;;;6243175;23;20012;-86
2022/09/28 05:02:25;;;;;;;0.60;0.40;;;6.50;99.90;;;;;;6192915;23;20039;-86
2022/09/28 05:04:52;;;;;;;;;;;6.60;99.90;;;;;;6143622;23;20024;-86
2022/09/28 05:07:17;;;;;;;0.45;0.32;;;6.40;99.90;;;;;;6192944;23;19920;-86
2022/09/28 05:09:43;;;;;;;0.47;0.13;;;6.40;99.90;;;;;;6192955;23;20020;-86
2022/09/28 05:12:12;;;;;;;1.02;0.38;;;6.40;99.90;;;;;;6169573;23;20066;-86
2022/09/28 05:14:38;;;;;;;1.13;0.50;;;6.40;99.90;;;;;;6192986;23;20337;-86
2022/09/28 05:17:04;;;;;;;0.73;0.20;;;6.30;99.90;;;;;;6217900;23;20236;-86
2022/09/28 05:19:29;;;;;;;1.37;0.60;;;6.30;99.90;;;;;;6192693;23;20441;-86
2022/09/28 05:21:56;;;;;;;0.50;0.40;;;6.20;99.90;;;;;;6192556;23;20020;-86
2022/09/28 05:24:23;;;;;;;0.25;0.25;;;6.20;99.90;;;;;;6193119;23;20095;-86
2022/09/28 05:26:48;;;;;;;1.30;0.32;;;6.20;99.90;;;;;;6192135;23;20119;-86
2022/09/28 05:29:14;;;;;;;1.40;0.33;;;6.50;99.90;;;;;;6193366;23;20448;-86
2022/09/28 05:31:40;;;;;;;0.10;0.10;;;7.50;99.90;;;;;;6193042;23;20016;-86
2022/09/28 05:34:06;;;;;;;0.83;0.30;;;7.20;99.90;;;;;;6192710;23;20035;-86
2022/09/28 05:36:31;;;;;;;0.60;0.33;;;6.20;99.90;;;;;;6193261;23;20027;-86
2022/09/28 05:38:57;;;;;;;0.23;0.20;;;6.10;99.90;;;;;;6192621;23;20020;-86
2022/09/28 05:41:25;;;;;;;0.10;0.10;;;5.90;99.90;;;;;;6167949;23;20024;-86
2022/09/28 05:43:51;;;;;;;1.20;0.30;;;6.10;99.90;;;;;;6168363;23;20022;-86
2022/09/28 05:46:18;;;;;;;1.17;0.33;;;7.30;99.90;;;;;;6192765;23;20052;-86
2022/09/28 05:48:44;;;;;;;0.10;0.10;;;6.10;99.90;;;;;;6168325;23;20325;-85
2022/09/28 05:51:10;;;;;;;1.30;0.50;;;6.00;99.90;;;;;;6191380;23;20077;-86
2022/09/28 05:53:36;;;;;;;0.32;0.28;;;6.30;99.90;;;;;;6218011;23;20046;-87
2022/09/28 05:56:02;;;;;;;0.10;0.10;;;7.10;99.90;;;;;;6192403;23;20095;-84
2022/09/28 05:58:28;;;;;;;1.47;0.40;;;6.90;99.90;;;;;;6169022;23;20070;-83
2022/09/28 06:00:55;;;;;;;0.30;0.20;;;6.10;99.90;;;;;;6218235;23;20247;-83
2022/09/28 06:03:20;;;;;;;;;;;6.00;99.90;;;;;;6219239;23;20393;-83
2022/09/28 06:05:46;;;;;;;0.90;0.28;;;6.00;99.90;;;;;;6217984;23;19955;-83
2022/09/28 06:08:12;;;;;;;0.83;0.13;;;6.00;99.90;;;;;;6168374;23;20016;-82
2022/09/28 06:10:38;;;;;;;0.13;0.13;;;6.00;99.90;;;;;;6193619;23;20016;-83
2022/09/28 06:13:05;;;;;;;0.10;0.10;;;7.10;99.90;;;;;;6192382;23;20446;-84
2022/09/28 06:15:33;;;;;;;0.95;0.52;;;6.10;99.90;;;;;;6217606;23;20017;-84
2022/09/28 06:18:04;;;;;;;1.02;0.50;;;6.10;99.90;;;;;;6192171;23;20099;-84
2022/09/28 06:20:36;;;;;;;0.15;0.15;;;6.10;99.90;;;;;;6192406;23;20086;-84
2022/09/28 06:23:02;;;;;;;0.20;0.17;;;6.20;99.90;;;;;;6192233;23;20024;-84
2022/09/28 06:25:27;;;;;;;1.08;0.30;;;6.20;99.90;;;;;;6192534;23;20345;-84
2022/09/28 06:28:11;;;;;;;0.20;0.20;;;6.20;99.90;;;;;;6217267;23;20031;-86
2022/09/28 06:30:37;;;;;;;2.00;0.52;;;6.20;99.90;;;;;;6217355;23;20336;-85
2022/09/28 06:33:04;;;;;;;0.95;0.40;;;6.30;99.90;;;;;;6192885;23;20011;-86
2022/09/28 06:35:33;;;;;;;1.05;0.40;;;7.10;99.90;;;;;;6218022;23;20016;-86
2022/09/28 06:37:59;;;;;;;0.68;0.25;;;6.40;99.90;;;;;;6218103;23;20461;-86
2022/09/28 06:40:26;;;;;;;0.80;0.17;;;6.40;99.90;;;;;;6193473;23;20020;-86
2022/09/28 06:43:08;;;;;;;0.90;0.25;;;7.00;99.90;;;;;;6218395;23;20016;-86
2022/09/28 06:45:35;;;;;;;0.10;0.10;;;6.50;99.90;;;;;;6218473;23;20019;-86
2022/09/28 06:48:01;;;;;;;0.90;0.20;;;6.50;99.90;;;;;;6193006;23;20023;-86
2022/09/28 06:50:31;;;;;;;0.70;0.30;;;6.50;99.90;;;;;;6218935;23;20340;-86
2022/09/28 06:52:57;;;;;;;0.20;0.20;;;6.60;99.90;;;;;;6218039;23;20348;-86
2022/09/28 06:55:23;;;;;;;1.25;0.20;;;6.50;99.90;;;;;;6193375;23;20024;-86
2022/09/28 06:58:09;;;;;;;0.25;0.20;;;6.50;99.90;;;;;;6218642;23;20555;-86
2022/09/28 07:00:36;;;;;;;1.55;0.32;;;6.60;99.90;;;;;;6218501;23;20016;-86
2022/09/28 07:03:04;;;;;;;0.43;0.35;;;6.50;99.90;;;;;;6169196;23;20114;-86
2022/09/28 07:05:33;;;;;;;0.60;0.50;;;8.00;99.90;;;;;;6170672;23;20099;-86
2022/09/28 07:08:00;;;;;;;0.82;0.40;;;6.50;99.90;;;;;;6219806;23;20020;-86
2022/09/28 07:10:27;;;;;;;;;;;6.50;99.90;;;;;;6195652;23;20023;-86
2022/09/28 07:12:54;;;;;;;1.27;0.20;;;6.60;99.90;;;;;;6195212;23;19990;-86
2022/09/28 07:15:20;;;;;;;0.50;0.38;;;6.50;99.90;;;;;;6219648;23;20013;-86
2022/09/28 07:17:46;;;;;;;0.68;0.57;;;7.40;99.90;;;;;;6195003;23;20031;-86
2022/09/28 07:20:12;;;;;;;0.60;0.10;;;7.60;99.90;;;;;;6194642;23;20024;-86
2022/09/28 07:22:38;;;;;;;2.28;0.52;;;6.60;99.90;;;;;;6195105;23;20047;-86
2022/09/28 07:25:06;;;;;;;0.20;0.10;;;7.60;99.90;;;;;;6219517;23;20020;-86
2022/09/28 07:27:32;;;;;;;0.17;0.00;;;6.70;99.90;;;;;;6220457;23;20278;-87
2022/09/28 07:29:58;;;;;;;0.43;0.43;;;6.70;99.90;;;;;;6170386;23;20024;-87
2022/09/28 07:32:25;;;;;;;0.20;0.20;;;6.80;99.90;;;;;;6219549;23;20059;-86
2022/09/28 07:34:52;;;;;;;0.52;0.52;;;6.70;99.90;;;;;;6195073;23;20023;-87
2022/09/28 07:37:18;;;;;;;1.10;0.28;;;7.10;99.90;;;;;;6194403;23;20047;-86
2022/09/28 07:42:31;;;;;;;0.50;0.28;;;6.70;99.90;;;;;;6220373;23;20016;-86
2022/09/28 07:44:57;;;;;;;0.52;0.17;;;6.80;99.90;;;;;;6220003;23;20103;-86
2022/09/28 07:47:25;;;;;;;1.27;0.20;;;6.80;99.90;;;;;;6169926;23;20056;-87
2022/09/28 07:49:59;;;;;;;2.35;0.75;;;6.80;99.90;;;;;;6194864;23;20016;-86
2022/09/28 07:52:25;;;;;;;0.40;0.20;;;7.00;99.90;;;;;;6194712;23;20807;-87
2022/09/28 07:54:57;;;;;;;0.10;0.10;;;6.80;99.90;;;;;;6196122;23;20441;-86
2022/09/28 07:57:23;;;;;;;0.63;0.52;;;6.80;99.90;;;;;;6197307;23;20016;-86
2022/09/28 07:59:49;;;;;;;0.88;0.30;;;6.80;99.90;;;;;;6171434;23;20020;-87
2022/09/28 08:02:19;;;;;;;0.20;0.20;;;8.20;99.90;;;;;;6169245;23;20012;-86
2022/09/28 08:04:49;;;;;;;0.00;0.00;;;7.00;99.90;;;;;;6219005;23;20099;-87
2022/09/28 08:07:16;;;;;;;0.20;0.17;;;7.10;99.90;;;;;;6195315;23;20019;-87
2022/09/28 08:09:43;;;;;;;0.73;0.30;;;7.20;99.90;;;;;;6194735;23;20024;-86
2022/09/28 08:12:09;;;;;;;0.00;0.00;;;7.30;99.90;;;;;;6194118;23;20013;-86
2022/09/28 08:14:36;;;;;;;0.98;0.20;;;7.40;99.90;;;;;;6195443;23;20016;-87
2022/09/28 08:17:03;;;;;;;0.45;0.25;;;7.50;99.90;;;;;;6194590;23;20340;-87
2022/09/28 08:22:14;;;;;;;1.13;0.30;;;7.50;99.90;;;;;;6221283;23;20032;-87
2022/09/28 08:24:40;;;;;;;0.03;0.03;;;7.50;99.90;;;;;;6170150;23;20016;-87
2022/09/28 08:27:09;;;;;;;0.10;0.10;;;7.60;99.90;;;;;;6195498;23;20519;-88
2022/09/28 08:29:35;;;;;;;0.85;0.45;;;7.80;99.90;;;;;;6194746;23;20466;-87
2022/09/28 08:32:01;;;;;;;0.70;0.55;;;9.00;99.90;;;;;;6220242;23;20044;-87
2022/09/28 08:34:28;;;;;;;0.17;0.17;;;9.10;99.90;;;;;;6224896;23;20020;-84
2022/09/28 08:36:57;;;;;;;0.55;0.25;;;8.00;99.90;;;;;;6194010;23;20113;-85
2022/09/28 08:39:23;;;;;;;0.10;0.10;;;8.10;99.90;;;;;;6193159;23;20549;-86
2022/09/28 08:42:37;;;;;;;0.33;0.10;;;8.20;99.90;;;;;;6168501;23;20016;-86
2022/09/28 08:45:13;;;;;;;0.13;0.13;;;8.30;99.90;;;;;;6165233;23;20016;-86
2022/09/28 08:50:30;;;;;;;0.53;0.20;;;8.20;99.90;;;;;;6217895;23;20405;-86
2022/09/28 08:53:03;;;;;;;1.35;0.28;;;8.20;99.90;;;;;;6218457;23;20436;-86
2022/09/28 08:55:33;;;;;;;0.90;0.28;;;8.20;99.90;;;;;;6192959;23;20020;-86
2022/09/28 08:58:23;;;;;;;0.17;0.17;;;8.20;99.90;;;;;;6219345;23;20063;-85
2022/09/28 09:00:51;;;;;;;0.35;0.20;;;8.30;99.90;;;;;;6218415;23;20099;-86
2022/09/28 09:03:44;;;;;;;0.20;0.10;;;8.40;99.90;;;;;;6167888;23;20035;-86
2022/09/28 09:06:21;;;;;;;1.02;0.28;;;8.40;99.90;;;;;;6186008;23;20020;-85
2022/09/28 09:09:28;;;;;;;0.00;0.00;;;8.50;99.90;;;;;;6194764;23;20391;-85
2022/09/28 09:12:10;;;;;;;0.38;0.38;;;8.60;99.90;;;;;;6137757;23;20016;-86
2022/09/28 09:14:48;;;;;;;1.35;0.30;;;8.70;99.90;;;;;;6220031;23;20203;-85
2022/09/28 09:17:44;;;;;;;0.20;0.10;;;8.80;99.90;;;;;;6220816;23;20464;-84
2022/09/28 09:20:32;;;;;;;0.25;0.20;;;8.90;99.90;;;;;;6149269;23;20020;-85
2022/09/28 09:22:58;;;;;;;;;;;9.00;99.90;;;;;;6194312;23;20401;-84
2022/09/28 09:25:49;;;;;;;0.00;0.00;;;9.00;99.90;;;;;;6217568;23;19924;-86
2022/09/28 09:28:21;;;;;;;1.17;0.28;;;9.00;99.90;;;;;;6218631;23;20023;-85
2022/09/28 09:31:05;;;;;;;0.22;0.17;;;9.20;99.90;;;;;;6193820;23;20016;-84
2022/09/28 09:34:07;;;;;;;0.50;0.25;;;9.40;99.90;;;;;;6192761;23;20020;-86
2022/09/28 09:36:38;;;;;;;0.52;0.35;;;9.70;99.90;;;;;;6184346;23;20020;-85
2022/09/28 09:39:09;;;;;;;1.85;0.32;;;10.10;99.90;;;;;;6217959;23;20016;-85
2022/09/28 09:41:47;;;;;;;1.38;0.40;;;10.20;99.90;;;;;;6192801;23;20020;-85
2022/09/28 09:44:28;;;;;;;0.25;0.25;;;10.30;99.90;;;;;;6193823;23;20125;-84
2022/09/28 09:47:03;;;;;;;0.30;0.20;;;10.40;99.90;;;;;;6219038;23;20103;-85
2022/09/28 09:49:37;;;;;;;0.20;0.10;;;10.40;99.90;;;;;;6193899;23;20393;-84
2022/09/28 09:52:08;;;;;;;1.67;0.70;;;10.40;99.90;;;;;;6217689;23;20016;-85
2022/09/28 09:54:37;;;;;;;0.40;0.25;;;10.50;99.90;;;;;;6216439;23;20099;-82
2022/09/28 09:57:44;;;;;;;0.47;0.35;;;10.60;99.90;;;;;;6192748;23;20055;-86
2022/09/28 10:00:12;;;;;;;0.20;0.20;;;10.70;99.90;;;;;;6068817;23;20030;-85
2022/09/28 10:02:38;;;;;;;0.15;0.15;;;10.90;99.90;;;;;;6068302;23;20015;-84
2022/09/28 10:05:18;;;;;;;0.17;0.17;;;11.10;99.90;;;;;;6119472;23;20052;-84
2022/09/28 10:08:07;;;;;;;0.38;0.25;;;11.40;99.90;;;;;;6192405;23;20078;-85
2022/09/28 10:10:48;;;;;;;0.50;0.50;;;11.70;99.90;;;;;;6217424;23;20090;-85
2022/09/28 10:13:14;;;;;;;1.75;0.47;;;11.90;99.90;;;;;;6192437;23;20024;-85
2022/09/28 10:15:40;;;;;;;0.75;0.40;;;12.00;99.90;;;;;;6192181;23;20321;-84
2022/09/28 10:18:10;;;;;;;;;;;12.30;99.90;;;;;;6168497;23;20318;-84
2022/09/28 10:20:41;;;;;;;0.95;0.30;;;12.50;99.90;;;;;;6192253;23;19990;-85
2022/09/28 10:23:23;;;;;;;0.85;0.43;;;12.70;99.90;;;;;;6217764;23;20016;-84
2022/09/28 10:25:57;;;;;;;0.50;0.20;;;12.80;99.90;;;;;;6192191;23;20385;-84
2022/09/28 10:28:47;;;;;;;2.28;0.68;;;13.00;99.90;;;;;;6217494;23;20016;-85
2022/09/28 10:31:33;;;;;;;0.90;0.43;;;13.20;99.90;;;;;;6217657;23;20013;-84
2022/09/28 10:33:58;;;;;;;0.85;0.32;;;13.40;99.90;;;;;;6217471;23;20023;-84
2022/09/28 10:36:25;;;;;;;0.93;0.20;;;13.50;99.90;;;;;;6192588;23;20012;-83
2022/09/28 10:38:52;;;;;;;0.40;0.20;;;13.50;99.90;;;;;;6194300;23;20027;-85
2022/09/28 10:41:18;;;;;;;0.38;0.38;;;13.30;99.90;;;;;;6194648;23;20486;-85
2022/09/28 10:44:08;;;;;;;0.10;0.10;;;13.10;99.90;;;;;;6169442;23;20024;-85
2022/09/28 10:46:37;;;;;;;0.30;0.30;;;12.90;99.90;;;;;;6219242;23;20030;-86
2022/09/28 10:49:05;;;;;;;0.20;0.17;;;12.70;99.90;;;;;;6219582;23;20019;-86
2022/09/28 10:51:50;;;;;;;0.43;0.38;;;12.50;99.90;;;;;;6193939;23;20012;-86
2022/09/28 10:54:24;;;;;;;0.20;0.20;;;12.30;99.90;;;;;;6194380;23;20078;-85
2022/09/28 10:56:52;;;;;;;0.50;0.22;;;12.20;99.90;;;;;;6194673;23;20628;-85
2022/09/28 10:59:27;;;;;;;0.25;0.25;;;12.00;99.90;;;;;;6220243;23;20465;-85
2022/09/28 11:02:15;;;;;;;0.00;0.00;;;11.90;99.90;;;;;;6194726;23;20020;-85
2022/09/28 11:04:48;;;;;;;0.10;0.10;;;11.80;99.90;;;;;;6219427;23;20016;-85
2022/09/28 11:07:43;;;;;;;0.00;0.00;;;11.80;99.90;;;;;;6195328;23;20537;-85
2022/09/28 11:10:23;;;;;;;0.10;0.10;;;11.80;99.90;;;;;;6194745;23;20070;-85
2022/09/28 11:12:51;;;;;;;0.10;0.10;;;12.10;99.90;;;;;;6219885;23;20012;-85
2022/09/28 11:15:20;;;;;;;0.20;0.20;;;12.50;99.90;;;;;;6145550;23;20063;-85
2022/09/28 11:17:45;;;;;;;0.05;0.05;;;12.90;99.90;;;;;;6194183;23;20055;-85
2022/09/28 11:20:23;;;;;;;0.00;0.00;;;13.10;99.90;;;;;;6195341;23;20024;-85
2022/09/28 11:22:51;;;;;;;0.35;0.08;;;13.10;99.90;;;;;;6219873;23;20047;-85
2022/09/28 11:25:16;;;;;;;0.55;0.10;;;13.10;99.90;;;;;;6220058;23;20012;-85
2022/09/28 11:27:51;;;;;;;0.97;0.20;;;13.00;99.90;;;;;;6219654;23;20016;-85
2022/09/28 11:30:43;;;;;;;0.08;0.08;;;12.80;99.90;;;;;;6195144;23;20016;-84
2022/09/28 11:33:20;;;;;;;0.00;0.00;;;12.70;99.90;;;;;;6194605;23;20058;-85
2022/09/28 11:35:59;;;;;;;0.10;0.10;;;12.60;99.90;;;;;;6219625;23;20012;-85
2022/09/28 11:39:05;;;;;;;0.10;0.10;;;12.50;99.90;;;;;;6195070;23;20024;-85
2022/09/28 11:41:56;;;;;;;0.15;0.05;;;12.40;99.90;;;;;;6220009;23;20020;-84
2022/09/28 11:44:43;;;;;;;0.10;0.10;;;12.40;99.90;;;;;;6195060;23;20016;-85
2022/09/28 11:47:21;;;;;;;0.10;0.10;;;12.80;99.90;;;;;;6220233;23;20038;-85
2022/09/28 11:50:00;;;;;;;0.00;0.00;;;13.30;99.90;;;;;;6194355;23;20282;-85
2022/09/28 11:53:04;;;;;;;0.40;0.30;;;13.80;99.90;;;;;;6220115;23;20055;-85
2022/09/28 11:55:35;;;;;;;0.22;0.10;;;13.80;99.90;;;;;;6194755;23;20357;-85
2022/09/28 11:58:25;;;;;;;0.03;0.03;;;14.50;99.90;;;;;;6194438;23;20020;-85
2022/09/28 12:00:58;;;;;;;0.25;0.10;;;14.50;99.90;;;;;;6176448;23;20071;-85
2022/09/28 12:03:38;;;;;;;0.17;0.10;;;14.70;99.90;;;;;;6194799;23;20081;-85
2022/09/28 12:06:14;;;;;;;0.10;0.10;;;14.90;99.90;;;;;;6193961;23;20024;-85
2022/09/28 12:08:46;;;;;;;0.20;0.10;;;15.20;99.90;;;;;;6194769;23;20341;-85
2022/09/28 12:11:21;;;;;;;0.25;0.25;;;15.40;99.90;;;;;;6194708;23;20016;-85
2022/09/28 12:13:52;;;;;;;0.20;0.20;;;15.20;99.90;;;;;;6194259;23;20024;-86
2022/09/28 12:16:40;;;;;;;0.20;0.20;;;15.20;99.90;;;;;;6194962;23;20103;-85
2022/09/28 12:19:29;;;;;;;0.00;0.00;;;15.10;99.90;;;;;;6218961;23;20012;-85
2022/09/28 12:22:16;;;;;;;0.00;0.00;;;15.20;99.90;;;;;;6194154;23;20396;-86
2022/09/28 12:24:46;;;;;;;0.20;0.10;;;15.10;99.90;;;;;;6194576;23;20052;-86
2022/09/28 12:27:39;;;;;;;0.15;0.15;;;15.30;99.90;;;;;;6195043;23;20044;-85
2022/09/28 12:30:21;;;;;;;0.10;0.10;;;15.50;99.90;;;;;;6219008;23;20103;-86
2022/09/28 12:32:49;;;;;;;0.15;0.10;;;15.60;99.90;;;;;;6219179;23;20388;-86
2022/09/28 12:35:34;;;;;;;0.05;0.00;;;15.80;99.90;;;;;;6194597;23;20016;-85
2022/09/28 12:38:21;;;;;;;0.00;0.00;;;16.00;99.90;;;;;;6194041;23;20082;-86
2022/09/28 12:41:21;;;;;;;0.10;0.10;;;16.30;99.90;;;;;;6193891;23;20095;-86
2022/09/28 12:44:02;;;;;;;0.70;0.10;;;16.40;99.90;;;;;;6218934;23;20066;-86
2022/09/28 12:46:44;;;;;;;0.10;0.10;;;16.50;99.90;;;;;;6194519;23;20067;-86
2022/09/28 12:49:19;;;;;;;0.00;0.00;;;16.50;99.90;;;;;;6193820;23;20024;-86
2022/09/28 12:52:17;;;;;;;0.20;0.10;;;16.30;99.90;;;;;;6194145;23;20392;-86
2022/09/28 12:55:02;;;;;;;;;;;16.10;99.90;;;;;;6220034;23;20012;-86
2022/09/28 12:57:40;;;;;;;0.00;0.00;;;15.80;99.90;;;;;;6219389;23;19943;-86
2022/09/28 13:00:21;;;;;;;0.00;0.00;;;15.60;99.90;;;;;;6193648;23;20027;-86
2022/09/28 13:03:01;;;;;;;0.08;0.00;;;15.30;99.90;;;;;;6220481;23;20018;-86
2022/09/28 13:05:51;;;;;;;0.00;0.00;;;15.20;99.90;;;;;;6218955;23;20444;-86
2022/09/28 13:08:20;;;;;;;0.08;0.03;;;15.00;99.90;;;;;;6193775;23;20016;-86
2022/09/28 13:11:04;;;;;;;0.00;0.00;;;14.90;99.90;;;;;;6193954;23;20020;-85
2022/09/28 13:13:53;;;;;;;0.10;0.00;;;14.70;99.90;;;;;;6219166;23;20023;-85
2022/09/28 13:16:33;;;;;;;0.08;0.08;;;14.50;99.90;;;;;;6178033;23;20054;-86
2022/09/28 13:19:21;;;;;;;0.30;0.15;;;14.40;99.90;;;;;;6193567;23;20016;-86
2022/09/28 13:22:12;;;;;;;0.00;0.00;;;14.20;99.90;;;;;;6193914;23;20340;-86
2022/09/28 13:24:43;;;;;;;0.10;0.00;;;14.10;99.90;;;;;;6193907;23;20099;-86
2022/09/28 13:27:15;;;;;;;0.00;0.00;;;14.00;99.90;;;;;;6169374;23;20098;-86
2022/09/28 13:29:42;;;;;;;0.13;0.00;;;13.90;99.90;;;;;;6193933;23;20016;-86
2022/09/28 13:32:11;;;;;;;0.00;0.00;;;13.70;99.90;;;;;;6218291;23;20412;-86
2022/09/28 13:34:38;;;;;;;0.03;0.00;;;13.70;99.90;;;;;;6218568;23;20012;-86
2022/09/28 13:37:10;;;;;;;0.00;0.00;;;13.60;99.90;;;;;;6218392;23;20480;-86
2022/09/28 13:39:44;;;;;;;0.00;0.00;;;13.50;99.90;;;;;;6218508;23;20023;-86